»·PEaware :: CCP1 KRNO-KSBP

CCP1 :: KRNO-KSBP

FLIGHT INFORMATION

Flight Status: Arrived
Operator: Unknown
More flights by this operator :: More flights under this callsign
Pilot: Max W. (2591)
Aircraft: BOEING 727-200
(B722)
More flights by this aircraft type
Origin: KRNO Reno/Tahoe Intl
United States
Destination: KSBP San Luis Co Regl
United States
More flights between these airports :: More routes between these airports
Route: +RENO9 SWR PRB MQO
File this flight plan on PilotEdge
Remarks: STUDENT PILOT FAILED MY V1 5X SORRY KEITH
Altitude:
(Current/Filed)
26,000ft
Speed:
(Current/Filed)
450kts
Departed: 07-Apr-19 04:48 PM
Arrived: 07-Apr-19 05:40 PM
Distance/Time
Traveled:
259nm/0:52
Distance/Time
To Go:
Arrived

Flight Plot

Page will automatically refresh every two minutes.

Flight plan parsing failed; only flown route is shown


Map Options




Map Legend


Flown Route
Filed Route
Departure Airport
Arrival Airport
Navaid (VOR, NDB)
Fix

Horizontal Profiles

Position Reports

Time Latitude Longitude Heading Altitude Ground
Speed
07-Apr-19 16:27 39.504359 -119.773752 358 4421ft 0kts
07-Apr-19 16:28 39.504359 -119.773752 358 4421ft 0kts
07-Apr-19 16:29 39.504359 -119.773752 358 4421ft 0kts
07-Apr-19 16:30 39.504359 -119.773752 358 4421ft 0kts
07-Apr-19 16:31 39.504359 -119.773752 358 4421ft 0kts
07-Apr-19 16:32 39.504359 -119.773752 358 4421ft 0kts
07-Apr-19 16:33 39.504359 -119.773752 358 4421ft 0kts
07-Apr-19 16:34 39.504359 -119.773752 358 4421ft 0kts
07-Apr-19 16:35 39.504359 -119.773752 358 4421ft 0kts
07-Apr-19 16:36 39.504359 -119.773752 358 4421ft 0kts
07-Apr-19 16:37 39.504359 -119.773752 358 4421ft 0kts
07-Apr-19 16:38 39.503895 -119.773745 16 4421ft 2kts
07-Apr-19 16:39 39.503723 -119.774104 89 4421ft 0kts
07-Apr-19 16:40 39.503723 -119.774104 89 4421ft 0kts
07-Apr-19 16:41 39.503723 -119.774104 89 4421ft 0kts
07-Apr-19 16:42 39.503723 -119.774103 89 4421ft 0kts
07-Apr-19 16:43 39.503733 -119.772319 87 4421ft 2kts
07-Apr-19 16:44 39.503734 -119.772297 87 4421ft 0kts
07-Apr-19 16:45 39.507894 -119.771495 0 4421ft 25kts
07-Apr-19 16:46 39.512361 -119.771490 355 4421ft 10kts
07-Apr-19 16:47 39.512045 -119.769218 179 4421ft 50kts
07-Apr-19 16:48 39.470317 -119.768849 186 6249ft 190kts
07-Apr-19 16:49 39.416910 -119.768668 191 9248ft 194kts
07-Apr-19 16:50 39.358545 -119.768393 187 11674ft 237kts
07-Apr-19 16:51 39.291969 -119.801654 227 13734ft 285kts
07-Apr-19 16:52 39.246742 -119.885968 251 16917ft 296kts
07-Apr-19 16:53 39.220194 -119.982771 259 20067ft 289kts
07-Apr-19 16:54 39.198104 -120.084355 262 22574ft 301kts
07-Apr-19 16:55 39.187437 -120.193184 261 24954ft 310kts
07-Apr-19 16:57 39.136117 -120.280039 202 26389ft 377kts
07-Apr-19 16:58 39.022325 -120.270938 183 27373ft 433kts
07-Apr-19 16:59 38.899994 -120.258654 183 27371ft 487kts
07-Apr-19 17:00 38.761802 -120.249960 183 27368ft 536kts
07-Apr-19 17:01 38.610602 -120.241700 183 27354ft 531kts
07-Apr-19 17:02 38.476473 -120.232258 183 27317ft 441kts
07-Apr-19 17:03 38.358453 -120.221610 183 27281ft 420kts
07-Apr-19 17:04 38.241164 -120.210906 183 27284ft 425kts
07-Apr-19 17:05 38.120867 -120.207019 192 27294ft 445kts
07-Apr-19 17:06 37.992054 -120.222208 192 27282ft 486kts
07-Apr-19 17:07 37.863380 -120.238442 192 27265ft 496kts
07-Apr-19 17:08 37.727015 -120.255544 192 27247ft 484kts
07-Apr-19 17:09 37.596889 -120.270982 192 27247ft 460kts
07-Apr-19 17:10 37.473178 -120.284548 192 27233ft 434kts
07-Apr-19 17:11 37.355541 -120.296428 192 27235ft 419kts
07-Apr-19 17:12 37.240049 -120.307777 192 27235ft 418kts
07-Apr-19 17:13 37.124053 -120.318996 191 27240ft 417kts
07-Apr-19 17:14 37.008767 -120.330360 191 27241ft 417kts
07-Apr-19 17:15 36.899875 -120.342942 195 27272ft 412kts
07-Apr-19 17:16 36.789529 -120.358461 196 26941ft 417kts
07-Apr-19 17:17 36.672377 -120.377059 192 26261ft 434kts
07-Apr-19 17:17 36.572943 -120.388680 188 25619ft 429kts
07-Apr-19 17:18 36.454963 -120.399673 189 24822ft 425kts
07-Apr-19 17:20 36.321979 -120.417320 192 23930ft 406kts
07-Apr-19 17:21 36.212353 -120.440779 199 22751ft 395kts
07-Apr-19 17:21 36.124058 -120.467344 199 21839ft 389kts
07-Apr-19 17:22 36.020080 -120.499176 199 20465ft 382kts
07-Apr-19 17:24 35.901441 -120.536510 199 18797ft 373kts
07-Apr-19 17:24 35.831687 -120.563821 204 15130ft 353kts
07-Apr-19 17:25 35.746645 -120.603419 204 11095ft 312kts
07-Apr-19 17:26 35.665722 -120.632729 192 8194ft 302kts
07-Apr-19 17:27 35.586045 -120.650002 192 7901ft 299kts
07-Apr-19 17:28 35.505957 -120.658554 160 6969ft 321kts
07-Apr-19 17:29 35.448205 -120.592788 131 5485ft 245kts
07-Apr-19 17:30 35.398432 -120.536640 143 4984ft 234kts
07-Apr-19 17:31 35.348795 -120.490649 144 4958ft 212kts
07-Apr-19 17:32 35.299751 -120.450380 148 4927ft 211kts
07-Apr-19 17:33 35.245670 -120.424305 188 4761ft 209kts
07-Apr-19 17:34 35.187211 -120.447226 216 3506ft 227kts
07-Apr-19 17:35 35.167159 -120.503040 300 2734ft 160kts
07-Apr-19 17:36 35.185238 -120.548622 304 1898ft 138kts
07-Apr-19 17:37 35.205407 -120.585511 307 1211ft 130kts
07-Apr-19 17:38 35.226434 -120.621828 306 422ft 130kts
07-Apr-19 17:39 35.237814 -120.640518 73 192ft 1kts
07-Apr-19 17:40 35.238019 -120.640071 39 192ft 3kts

Navigation Log

Ident Type
Flight plan parsing failed, navigation log unavailable